sensor_id;sensor_type;location;lat;lon;timestamp;temperature;humidity
19152;DHT22;9708;53.114;9.388;2023-12-20T00:01:58;6.20;99.90
19152;DHT22;9708;53.114;9.388;2023-12-20T00:04:25;6.20;99.90
19152;DHT22;9708;53.114;9.388;2023-12-20T00:06:53;6.20;99.90
19152;DHT22;9708;53.114;9.388;2023-12-20T00:09:20;6.10;99.90
19152;DHT22;9708;53.114;9.388;2023-12-20T00:11:47;6.10;99.90
19152;DHT22;9708;53.114;9.388;2023-12-20T00:14:14;6.10;99.90
19152;DHT22;9708;53.114;9.388;2023-12-20T00:16:41;6.00;99.90
19152;DHT22;9708;53.114;9.388;2023-12-20T00:19:07;6.00;99.90
19152;DHT22;9708;53.114;9.388;2023-12-20T00:21:34;6.00;99.90
19152;DHT22;9708;53.114;9.388;2023-12-20T00:24:03;6.00;99.90
19152;DHT22;9708;53.114;9.388;2023-12-20T00:26:30;5.90;99.90
19152;DHT22;9708;53.114;9.388;2023-12-20T00:28:57;6.00;99.90
19152;DHT22;9708;53.114;9.388;2023-12-20T00:31:24;5.90;99.90
19152;DHT22;9708;53.114;9.388;2023-12-20T00:33:50;5.90;99.90
19152;DHT22;9708;53.114;9.388;2023-12-20T00:36:17;5.90;99.90
19152;DHT22;9708;53.114;9.388;2023-12-20T00:38:44;5.90;99.90
19152;DHT22;9708;53.114;9.388;2023-12-20T00:41:12;5.80;99.90
19152;DHT22;9708;53.114;9.388;2023-12-20T00:43:39;5.80;99.90
19152;DHT22;9708;53.114;9.388;2023-12-20T00:46:06;5.80;99.90
19152;DHT22;9708;53.114;9.388;2023-12-20T00:48:33;5.90;99.90
19152;DHT22;9708;53.114;9.388;2023-12-20T00:50:59;5.90;99.90
19152;DHT22;9708;53.114;9.388;2023-12-20T00:53:26;5.90;99.90
19152;DHT22;9708;53.114;9.388;2023-12-20T00:55:53;5.90;99.90
19152;DHT22;9708;53.114;9.388;2023-12-20T00:58:21;5.90;99.90
19152;DHT22;9708;53.114;9.388;2023-12-20T01:00:47;5.90;99.90
19152;DHT22;9708;53.114;9.388;2023-12-20T01:03:14;5.90;99.90
19152;DHT22;9708;53.114;9.388;2023-12-20T01:05:43;5.80;99.90
19152;DHT22;9708;53.114;9.388;2023-12-20T01:08:10;5.70;99.90
19152;DHT22;9708;53.114;9.388;2023-12-20T01:10:38;5.70;99.90
19152;DHT22;9708;53.114;9.388;2023-12-20T01:13:05;5.70;99.90
19152;DHT22;9708;53.114;9.388;2023-12-20T01:15:35;5.70;99.90
19152;DHT22;9708;53.114;9.388;2023-12-20T01:18:01;5.70;99.90
19152;DHT22;9708;53.114;9.388;2023-12-20T01:20:28;5.70;99.90
19152;DHT22;9708;53.114;9.388;2023-12-20T01:22:55;5.70;99.90
19152;DHT22;9708;53.114;9.388;2023-12-20T01:25:22;5.60;99.90
19152;DHT22;9708;53.114;9.388;2023-12-20T01:27:49;5.60;99.90
19152;DHT22;9708;53.114;9.388;2023-12-20T01:30:15;5.60;99.90
19152;DHT22;9708;53.114;9.388;2023-12-20T01:32:44;5.60;99.90
19152;DHT22;9708;53.114;9.388;2023-12-20T01:35:10;5.60;99.90
19152;DHT22;9708;53.114;9.388;2023-12-20T01:37:37;5.60;99.90
19152;DHT22;9708;53.114;9.388;2023-12-20T01:40:05;5.50;99.90
19152;DHT22;9708;53.114;9.388;2023-12-20T01:42:33;5.50;99.90
19152;DHT22;9708;53.114;9.388;2023-12-20T01:45:00;5.50;99.90
19152;DHT22;9708;53.114;9.388;2023-12-20T01:47:28;5.50;99.90
19152;DHT22;9708;53.114;9.388;2023-12-20T01:49:56;5.50;99.90
19152;DHT22;9708;53.114;9.388;2023-12-20T01:52:23;5.40;99.90
19152;DHT22;9708;53.114;9.388;2023-12-20T01:54:51;5.40;99.90
19152;DHT22;9708;53.114;9.388;2023-12-20T01:57:20;5.50;99.90
19152;DHT22;9708;53.114;9.388;2023-12-20T01:59:47;5.50;99.90
19152;DHT22;9708;53.114;9.388;2023-12-20T02:02:14;5.40;99.90
19152;DHT22;9708;53.114;9.388;2023-12-20T02:04:41;5.40;99.90
19152;DHT22;9708;53.114;9.388;2023-12-20T02:07:10;5.40;99.90
19152;DHT22;9708;53.114;9.388;2023-12-20T02:09:38;5.40;99.90
19152;DHT22;9708;53.114;9.388;2023-12-20T02:12:06;5.40;99.90
19152;DHT22;9708;53.114;9.388;2023-12-20T02:14:33;5.40;99.90
19152;DHT22;9708;53.114;9.388;2023-12-20T02:16:59;5.40;99.90
19152;DHT22;9708;53.114;9.388;2023-12-20T02:19:26;5.30;99.90
19152;DHT22;9708;53.114;9.388;2023-12-20T02:22:07;5.30;99.90
19152;DHT22;9708;53.114;9.388;2023-12-20T02:24:34;5.40;99.90
19152;DHT22;9708;53.114;9.388;2023-12-20T02:27:01;5.30;99.90
19152;DHT22;9708;53.114;9.388;2023-12-20T02:29:27;5.30;99.90
19152;DHT22;9708;53.114;9.388;2023-12-20T02:31:54;5.30;99.90
19152;DHT22;9708;53.114;9.388;2023-12-20T02:34:21;5.30;99.90
19152;DHT22;9708;53.114;9.388;2023-12-20T02:36:48;5.30;99.90
19152;DHT22;9708;53.114;9.388;2023-12-20T02:39:16;5.30;99.90
19152;DHT22;9708;53.114;9.388;2023-12-20T02:41:43;5.30;99.90
19152;DHT22;9708;53.114;9.388;2023-12-20T02:44:10;5.30;99.90
19152;DHT22;9708;53.114;9.388;2023-12-20T02:46:37;5.30;99.90
19152;DHT22;9708;53.114;9.388;2023-12-20T02:49:04;5.30;99.90
19152;DHT22;9708;53.114;9.388;2023-12-20T02:51:31;5.30;99.90
19152;DHT22;9708;53.114;9.388;2023-12-20T02:53:58;5.30;99.90
19152;DHT22;9708;53.114;9.388;2023-12-20T02:56:26;5.30;99.90
19152;DHT22;9708;53.114;9.388;2023-12-20T02:58:53;5.20;99.90
19152;DHT22;9708;53.114;9.388;2023-12-20T03:01:19;5.30;99.90
19152;DHT22;9708;53.114;9.388;2023-12-20T03:03:46;5.30;99.90
19152;DHT22;9708;53.114;9.388;2023-12-20T03:06:16;5.30;99.90
19152;DHT22;9708;53.114;9.388;2023-12-20T03:08:43;5.40;99.90
19152;DHT22;9708;53.114;9.388;2023-12-20T03:11:10;5.40;99.90
19152;DHT22;9708;53.114;9.388;2023-12-20T03:13:38;5.40;99.90
19152;DHT22;9708;53.114;9.388;2023-12-20T03:16:08;5.40;99.90
19152;DHT22;9708;53.114;9.388;2023-12-20T03:18:35;5.50;99.90
19152;DHT22;9708;53.114;9.388;2023-12-20T03:21:02;5.50;99.90
19152;DHT22;9708;53.114;9.388;2023-12-20T03:23:29;5.50;99.90
19152;DHT22;9708;53.114;9.388;2023-12-20T03:25:58;5.50;99.90
19152;DHT22;9708;53.114;9.388;2023-12-20T03:28:25;5.50;99.90
19152;DHT22;9708;53.114;9.388;2023-12-20T03:30:54;5.50;99.90
19152;DHT22;9708;53.114;9.388;2023-12-20T03:33:20;5.60;99.90
19152;DHT22;9708;53.114;9.388;2023-12-20T03:35:47;5.60;99.90
19152;DHT22;9708;53.114;9.388;2023-12-20T03:38:14;5.60;99.90
19152;DHT22;9708;53.114;9.388;2023-12-20T03:40:41;5.60;99.90
19152;DHT22;9708;53.114;9.388;2023-12-20T03:43:08;5.60;99.90
19152;DHT22;9708;53.114;9.388;2023-12-20T03:45:35;5.70;99.90
19152;DHT22;9708;53.114;9.388;2023-12-20T03:48:03;5.70;99.90
19152;DHT22;9708;53.114;9.388;2023-12-20T03:50:31;5.70;99.90
19152;DHT22;9708;53.114;9.388;2023-12-20T03:52:57;5.70;99.90
19152;DHT22;9708;53.114;9.388;2023-12-20T03:55:24;5.80;99.90
19152;DHT22;9708;53.114;9.388;2023-12-20T03:57:51;5.90;99.90
19152;DHT22;9708;53.114;9.388;2023-12-20T04:00:18;5.80;99.90
19152;DHT22;9708;53.114;9.388;2023-12-20T04:02:45;5.90;99.90
19152;DHT22;9708;53.114;9.388;2023-12-20T04:05:13;5.90;99.90
19152;DHT22;9708;53.114;9.388;2023-12-20T04:07:40;5.90;99.90
19152;DHT22;9708;53.114;9.388;2023-12-20T04:10:08;6.00;99.90
19152;DHT22;9708;53.114;9.388;2023-12-20T04:12:35;6.00;99.90
19152;DHT22;9708;53.114;9.388;2023-12-20T04:15:01;6.00;99.90
19152;DHT22;9708;53.114;9.388;2023-12-20T04:17:34;6.00;99.90
19152;DHT22;9708;53.114;9.388;2023-12-20T04:20:01;6.10;99.90
19152;DHT22;9708;53.114;9.388;2023-12-20T04:22:29;6.00;99.90
19152;DHT22;9708;53.114;9.388;2023-12-20T04:24:56;6.10;99.90
19152;DHT22;9708;53.114;9.388;2023-12-20T04:27:23;6.10;99.90
19152;DHT22;9708;53.114;9.388;2023-12-20T04:29:50;6.10;99.90
19152;DHT22;9708;53.114;9.388;2023-12-20T04:32:16;6.10;99.90
19152;DHT22;9708;53.114;9.388;2023-12-20T04:34:43;6.10;99.90
19152;DHT22;9708;53.114;9.388;2023-12-20T04:37:10;6.10;99.90
19152;DHT22;9708;53.114;9.388;2023-12-20T04:39:39;6.10;99.90
19152;DHT22;9708;53.114;9.388;2023-12-20T04:42:06;6.20;99.90
19152;DHT22;9708;53.114;9.388;2023-12-20T04:44:34;6.10;99.90
19152;DHT22;9708;53.114;9.388;2023-12-20T04:47:00;6.10;99.90
19152;DHT22;9708;53.114;9.388;2023-12-20T04:49:27;6.10;99.90
19152;DHT22;9708;53.114;9.388;2023-12-20T04:51:54;6.20;99.90
19152;DHT22;9708;53.114;9.388;2023-12-20T04:54:21;6.20;99.90
19152;DHT22;9708;53.114;9.388;2023-12-20T04:56:49;6.20;99.90
19152;DHT22;9708;53.114;9.388;2023-12-20T04:59:16;6.20;99.90
19152;DHT22;9708;53.114;9.388;2023-12-20T05:01:43;6.20;99.90
19152;DHT22;9708;53.114;9.388;2023-12-20T05:04:10;6.30;99.90
19152;DHT22;9708;53.114;9.388;2023-12-20T05:06:37;6.30;99.90
19152;DHT22;9708;53.114;9.388;2023-12-20T05:09:03;6.30;99.90
19152;DHT22;9708;53.114;9.388;2023-12-20T05:11:30;6.30;99.90
19152;DHT22;9708;53.114;9.388;2023-12-20T05:13:58;6.30;99.90
19152;DHT22;9708;53.114;9.388;2023-12-20T05:16:25;6.30;99.90
19152;DHT22;9708;53.114;9.388;2023-12-20T05:18:52;6.30;99.90
19152;DHT22;9708;53.114;9.388;2023-12-20T05:21:19;6.30;99.90
19152;DHT22;9708;53.114;9.388;2023-12-20T05:23:46;6.30;99.90
19152;DHT22;9708;53.114;9.388;2023-12-20T05:26:13;6.30;99.90
19152;DHT22;9708;53.114;9.388;2023-12-20T05:28:40;6.30;99.90
19152;DHT22;9708;53.114;9.388;2023-12-20T05:31:08;6.30;99.90
19152;DHT22;9708;53.114;9.388;2023-12-20T05:33:35;6.30;99.90
19152;DHT22;9708;53.114;9.388;2023-12-20T05:36:03;6.30;99.90
19152;DHT22;9708;53.114;9.388;2023-12-20T05:38:30;6.30;99.90
19152;DHT22;9708;53.114;9.388;2023-12-20T05:40:56;6.40;99.90
19152;DHT22;9708;53.114;9.388;2023-12-20T05:43:23;6.40;99.90
19152;DHT22;9708;53.114;9.388;2023-12-20T05:45:50;6.40;99.90
19152;DHT22;9708;53.114;9.388;2023-12-20T05:48:18;6.40;99.90
19152;DHT22;9708;53.114;9.388;2023-12-20T05:50:45;6.40;99.90
19152;DHT22;9708;53.114;9.388;2023-12-20T05:53:12;6.40;99.90
19152;DHT22;9708;53.114;9.388;2023-12-20T05:55:39;6.40;99.90
19152;DHT22;9708;53.114;9.388;2023-12-20T05:58:05;6.40;99.90
19152;DHT22;9708;53.114;9.388;2023-12-20T06:00:32;6.50;99.90
19152;DHT22;9708;53.114;9.388;2023-12-20T06:02:59;6.50;99.90
19152;DHT22;9708;53.114;9.388;2023-12-20T06:05:27;6.50;99.90
19152;DHT22;9708;53.114;9.388;2023-12-20T06:07:54;6.50;99.90
19152;DHT22;9708;53.114;9.388;2023-12-20T06:10:23;6.40;99.90
19152;DHT22;9708;53.114;9.388;2023-12-20T06:12:49;6.40;99.90
19152;DHT22;9708;53.114;9.388;2023-12-20T06:15:16;6.40;99.90
19152;DHT22;9708;53.114;9.388;2023-12-20T06:17:43;6.40;99.90
19152;DHT22;9708;53.114;9.388;2023-12-20T06:20:10;6.50;99.90
19152;DHT22;9708;53.114;9.388;2023-12-20T06:22:39;6.40;99.90
19152;DHT22;9708;53.114;9.388;2023-12-20T06:25:07;6.50;99.90
19152;DHT22;9708;53.114;9.388;2023-12-20T06:27:34;6.50;99.90
19152;DHT22;9708;53.114;9.388;2023-12-20T06:30:01;6.50;99.90
19152;DHT22;9708;53.114;9.388;2023-12-20T06:32:28;6.40;99.90
19152;DHT22;9708;53.114;9.388;2023-12-20T06:34:55;6.40;99.90
19152;DHT22;9708;53.114;9.388;2023-12-20T06:37:22;6.50;99.90
19152;DHT22;9708;53.114;9.388;2023-12-20T06:39:50;6.50;99.90
19152;DHT22;9708;53.114;9.388;2023-12-20T06:42:18;6.50;99.90
19152;DHT22;9708;53.114;9.388;2023-12-20T06:44:45;6.50;99.90
19152;DHT22;9708;53.114;9.388;2023-12-20T06:47:12;6.50;99.90
19152;DHT22;9708;53.114;9.388;2023-12-20T06:49:39;6.50;99.90
19152;DHT22;9708;53.114;9.388;2023-12-20T06:52:06;6.50;99.90
19152;DHT22;9708;53.114;9.388;2023-12-20T06:54:33;6.50;99.90
19152;DHT22;9708;53.114;9.388;2023-12-20T06:57:02;6.50;99.90
19152;DHT22;9708;53.114;9.388;2023-12-20T06:59:30;6.50;99.90
19152;DHT22;9708;53.114;9.388;2023-12-20T07:01:56;6.50;99.90
19152;DHT22;9708;53.114;9.388;2023-12-20T07:04:23;6.50;99.90
19152;DHT22;9708;53.114;9.388;2023-12-20T07:06:50;6.40;99.90
19152;DHT22;9708;53.114;9.388;2023-12-20T07:09:19;6.40;99.90
19152;DHT22;9708;53.114;9.388;2023-12-20T07:11:46;6.50;99.90
19152;DHT22;9708;53.114;9.388;2023-12-20T07:14:14;6.40;99.90
19152;DHT22;9708;53.114;9.388;2023-12-20T07:16:41;6.40;99.90
19152;DHT22;9708;53.114;9.388;2023-12-20T07:19:08;6.40;99.90
19152;DHT22;9708;53.114;9.388;2023-12-20T07:21:35;6.50;99.90
19152;DHT22;9708;53.114;9.388;2023-12-20T07:24:02;6.50;99.90
19152;DHT22;9708;53.114;9.388;2023-12-20T07:26:29;6.50;99.90
19152;DHT22;9708;53.114;9.388;2023-12-20T07:28:55;6.60;99.90
19152;DHT22;9708;53.114;9.388;2023-12-20T07:31:25;6.60;99.90
19152;DHT22;9708;53.114;9.388;2023-12-20T07:33:52;6.60;99.90
19152;DHT22;9708;53.114;9.388;2023-12-20T07:36:19;6.60;99.90
19152;DHT22;9708;53.114;9.388;2023-12-20T07:38:46;6.70;99.90
19152;DHT22;9708;53.114;9.388;2023-12-20T07:41:13;6.70;99.90
19152;DHT22;9708;53.114;9.388;2023-12-20T07:43:41;6.80;99.90
19152;DHT22;9708;53.114;9.388;2023-12-20T07:46:08;6.80;99.90
19152;DHT22;9708;53.114;9.388;2023-12-20T07:48:37;6.70;99.90
19152;DHT22;9708;53.114;9.388;2023-12-20T07:51:04;6.70;99.90
19152;DHT22;9708;53.114;9.388;2023-12-20T07:53:33;6.70;99.90
19152;DHT22;9708;53.114;9.388;2023-12-20T07:56:00;6.80;99.90
19152;DHT22;9708;53.114;9.388;2023-12-20T07:58:27;6.80;99.90
19152;DHT22;9708;53.114;9.388;2023-12-20T08:00:55;6.80;99.90
19152;DHT22;9708;53.114;9.388;2023-12-20T08:03:22;6.80;99.90
19152;DHT22;9708;53.114;9.388;2023-12-20T08:05:50;6.80;99.90
19152;DHT22;9708;53.114;9.388;2023-12-20T08:08:17;6.80;99.90
19152;DHT22;9708;53.114;9.388;2023-12-20T08:10:44;6.90;99.90
19152;DHT22;9708;53.114;9.388;2023-12-20T08:13:11;6.90;99.90
19152;DHT22;9708;53.114;9.388;2023-12-20T08:15:38;6.90;99.90
19152;DHT22;9708;53.114;9.388;2023-12-20T08:18:05;6.90;99.90
19152;DHT22;9708;53.114;9.388;2023-12-20T08:20:32;7.00;99.90
19152;DHT22;9708;53.114;9.388;2023-12-20T08:23:00;7.00;99.90
19152;DHT22;9708;53.114;9.388;2023-12-20T08:25:27;7.00;99.90
19152;DHT22;9708;53.114;9.388;2023-12-20T08:27:54;7.10;99.90
19152;DHT22;9708;53.114;9.388;2023-12-20T08:30:20;7.00;99.90
19152;DHT22;9708;53.114;9.388;2023-12-20T08:32:47;7.10;99.90
19152;DHT22;9708;53.114;9.388;2023-12-20T08:35:14;7.10;99.90
19152;DHT22;9708;53.114;9.388;2023-12-20T08:37:41;7.10;99.90
19152;DHT22;9708;53.114;9.388;2023-12-20T08:40:10;7.10;99.90
19152;DHT22;9708;53.114;9.388;2023-12-20T08:42:37;7.20;99.90
19152;DHT22;9708;53.114;9.388;2023-12-20T08:45:05;7.20;99.90
19152;DHT22;9708;53.114;9.388;2023-12-20T08:47:31;7.20;99.90
19152;DHT22;9708;53.114;9.388;2023-12-20T08:49:58;7.20;99.90
19152;DHT22;9708;53.114;9.388;2023-12-20T08:52:27;7.20;99.90
19152;DHT22;9708;53.114;9.388;2023-12-20T08:54:54;7.30;99.90
19152;DHT22;9708;53.114;9.388;2023-12-20T08:57:23;7.30;99.90
19152;DHT22;9708;53.114;9.388;2023-12-20T08:59:51;7.20;99.90
19152;DHT22;9708;53.114;9.388;2023-12-20T09:02:18;7.30;99.90
19152;DHT22;9708;53.114;9.388;2023-12-20T09:04:45;7.30;99.90
19152;DHT22;9708;53.114;9.388;2023-12-20T09:07:22;7.30;99.90
19152;DHT22;9708;53.114;9.388;2023-12-20T09:09:49;7.40;99.90
19152;DHT22;9708;53.114;9.388;2023-12-20T09:12:17;7.40;99.90
19152;DHT22;9708;53.114;9.388;2023-12-20T09:14:46;7.30;99.90
19152;DHT22;9708;53.114;9.388;2023-12-20T09:17:13;7.20;99.90
19152;DHT22;9708;53.114;9.388;2023-12-20T09:19:40;7.20;99.90
19152;DHT22;9708;53.114;9.388;2023-12-20T09:22:07;7.20;99.90
19152;DHT22;9708;53.114;9.388;2023-12-20T09:24:34;7.10;99.90
19152;DHT22;9708;53.114;9.388;2023-12-20T09:27:01;7.10;99.90
19152;DHT22;9708;53.114;9.388;2023-12-20T09:29:28;7.10;99.90
19152;DHT22;9708;53.114;9.388;2023-12-20T09:31:57;7.10;99.90
19152;DHT22;9708;53.114;9.388;2023-12-20T09:34:24;7.10;99.90
19152;DHT22;9708;53.114;9.388;2023-12-20T09:36:52;7.10;99.90
19152;DHT22;9708;53.114;9.388;2023-12-20T09:39:20;7.10;99.90
19152;DHT22;9708;53.114;9.388;2023-12-20T09:41:56;7.10;99.90
19152;DHT22;9708;53.114;9.388;2023-12-20T09:44:25;7.10;99.90
19152;DHT22;9708;53.114;9.388;2023-12-20T09:46:53;7.10;99.90
19152;DHT22;9708;53.114;9.388;2023-12-20T09:49:22;7.10;99.90
19152;DHT22;9708;53.114;9.388;2023-12-20T09:51:50;7.10;99.90
19152;DHT22;9708;53.114;9.388;2023-12-20T09:54:18;7.00;99.90
19152;DHT22;9708;53.114;9.388;2023-12-20T09:56:45;6.90;99.90
19152;DHT22;9708;53.114;9.388;2023-12-20T09:59:12;6.70;99.90
19152;DHT22;9708;53.114;9.388;2023-12-20T10:01:40;6.60;99.90
19152;DHT22;9708;53.114;9.388;2023-12-20T10:04:08;6.60;99.90
19152;DHT22;9708;53.114;9.388;2023-12-20T10:06:39;6.40;99.90
19152;DHT22;9708;53.114;9.388;2023-12-20T10:09:06;6.30;99.90
19152;DHT22;9708;53.114;9.388;2023-12-20T10:11:35;6.20;99.90
19152;DHT22;9708;53.114;9.388;2023-12-20T10:14:03;6.10;99.90
19152;DHT22;9708;53.114;9.388;2023-12-20T10:16:30;6.10;99.90
19152;DHT22;9708;53.114;9.388;2023-12-20T10:18:58;6.10;99.90
19152;DHT22;9708;53.114;9.388;2023-12-20T10:21:25;6.10;99.90
19152;DHT22;9708;53.114;9.388;2023-12-20T10:23:54;6.20;99.90
19152;DHT22;9708;53.114;9.388;2023-12-20T10:26:22;6.20;99.90
19152;DHT22;9708;53.114;9.388;2023-12-20T10:28:50;6.20;99.90
19152;DHT22;9708;53.114;9.388;2023-12-20T10:31:29;6.30;99.90
19152;DHT22;9708;53.114;9.388;2023-12-20T10:33:57;6.40;99.90
19152;DHT22;9708;53.114;9.388;2023-12-20T10:36:25;6.40;99.90
19152;DHT22;9708;53.114;9.388;2023-12-20T10:38:55;6.40;99.90
19152;DHT22;9708;53.114;9.388;2023-12-20T10:41:25;6.40;99.90
19152;DHT22;9708;53.114;9.388;2023-12-20T10:43:58;6.40;99.90
19152;DHT22;9708;53.114;9.388;2023-12-20T10:46:26;6.40;99.90
19152;DHT22;9708;53.114;9.388;2023-12-20T10:48:54;6.40;99.90
19152;DHT22;9708;53.114;9.388;2023-12-20T10:51:21;6.40;99.90
19152;DHT22;9708;53.114;9.388;2023-12-20T10:53:50;6.40;99.90
19152;DHT22;9708;53.114;9.388;2023-12-20T10:56:19;6.40;99.90
19152;DHT22;9708;53.114;9.388;2023-12-20T10:58:47;6.50;99.90
19152;DHT22;9708;53.114;9.388;2023-12-20T11:01:15;6.50;99.90
19152;DHT22;9708;53.114;9.388;2023-12-20T11:03:48;6.50;99.90
19152;DHT22;9708;53.114;9.388;2023-12-20T11:06:25;6.60;99.90
19152;DHT22;9708;53.114;9.388;2023-12-20T11:08:59;6.50;99.90
19152;DHT22;9708;53.114;9.388;2023-12-20T11:11:41;6.50;99.90
19152;DHT22;9708;53.114;9.388;2023-12-20T11:14:16;6.60;99.90
19152;DHT22;9708;53.114;9.388;2023-12-20T11:16:45;6.60;99.90
19152;DHT22;9708;53.114;9.388;2023-12-20T11:19:12;6.60;99.90
19152;DHT22;9708;53.114;9.388;2023-12-20T11:21:40;6.60;99.90
19152;DHT22;9708;53.114;9.388;2023-12-20T11:24:07;6.70;99.90
19152;DHT22;9708;53.114;9.388;2023-12-20T11:26:36;7.10;99.90
19152;DHT22;9708;53.114;9.388;2023-12-20T11:29:31;8.00;99.90
19152;DHT22;9708;53.114;9.388;2023-12-20T11:32:00;9.00;99.90
19152;DHT22;9708;53.114;9.388;2023-12-20T11:34:27;9.50;99.90
19152;DHT22;9708;53.114;9.388;2023-12-20T11:36:58;9.90;99.90
19152;DHT22;9708;53.114;9.388;2023-12-20T11:39:26;10.30;99.90
19152;DHT22;9708;53.114;9.388;2023-12-20T11:41:56;10.60;99.90
19152;DHT22;9708;53.114;9.388;2023-12-20T11:44:25;9.80;99.90
19152;DHT22;9708;53.114;9.388;2023-12-20T11:46:52;10.00;99.90
19152;DHT22;9708;53.114;9.388;2023-12-20T11:49:23;9.90;99.90
19152;DHT22;9708;53.114;9.388;2023-12-20T11:51:50;9.10;99.90
19152;DHT22;9708;53.114;9.388;2023-12-20T11:54:17;9.30;99.90
19152;DHT22;9708;53.114;9.388;2023-12-20T11:56:45;9.30;99.90
19152;DHT22;9708;53.114;9.388;2023-12-20T11:59:14;9.00;99.90
19152;DHT22;9708;53.114;9.388;2023-12-20T12:01:48;9.00;99.90
19152;DHT22;9708;53.114;9.388;2023-12-20T12:04:15;9.30;99.90
19152;DHT22;9708;53.114;9.388;2023-12-20T12:06:43;9.50;99.90
19152;DHT22;9708;53.114;9.388;2023-12-20T12:09:10;9.90;99.90
19152;DHT22;9708;53.114;9.388;2023-12-20T12:11:37;10.30;99.90
19152;DHT22;9708;53.114;9.388;2023-12-20T12:14:04;10.40;99.90
19152;DHT22;9708;53.114;9.388;2023-12-20T12:16:32;10.40;99.90
19152;DHT22;9708;53.114;9.388;2023-12-20T12:18:59;10.50;99.90
19152;DHT22;9708;53.114;9.388;2023-12-20T12:21:26;10.20;99.90
19152;DHT22;9708;53.114;9.388;2023-12-20T12:23:53;9.30;99.90
19152;DHT22;9708;53.114;9.388;2023-12-20T12:26:20;8.80;99.90
19152;DHT22;9708;53.114;9.388;2023-12-20T12:28:46;8.40;99.90
19152;DHT22;9708;53.114;9.388;2023-12-20T12:31:14;8.20;99.90
19152;DHT22;9708;53.114;9.388;2023-12-20T12:33:43;8.00;99.90
19152;DHT22;9708;53.114;9.388;2023-12-20T12:36:10;7.90;99.90
19152;DHT22;9708;53.114;9.388;2023-12-20T12:38:41;7.80;99.90
19152;DHT22;9708;53.114;9.388;2023-12-20T12:41:08;7.60;99.90
19152;DHT22;9708;53.114;9.388;2023-12-20T12:43:36;7.70;99.90
19152;DHT22;9708;53.114;9.388;2023-12-20T12:46:03;7.70;99.90
19152;DHT22;9708;53.114;9.388;2023-12-20T12:48:30;7.60;99.90
19152;DHT22;9708;53.114;9.388;2023-12-20T12:50:58;7.50;99.90
19152;DHT22;9708;53.114;9.388;2023-12-20T12:53:25;7.50;99.90
19152;DHT22;9708;53.114;9.388;2023-12-20T12:55:53;7.50;99.90
19152;DHT22;9708;53.114;9.388;2023-12-20T12:58:20;7.60;99.90
19152;DHT22;9708;53.114;9.388;2023-12-20T13:00:47;7.50;99.90
19152;DHT22;9708;53.114;9.388;2023-12-20T13:03:14;7.60;99.90
19152;DHT22;9708;53.114;9.388;2023-12-20T13:05:42;7.70;99.90
19152;DHT22;9708;53.114;9.388;2023-12-20T13:08:10;8.00;99.90
19152;DHT22;9708;53.114;9.388;2023-12-20T13:10:37;8.10;99.90
19152;DHT22;9708;53.114;9.388;2023-12-20T13:13:04;8.30;99.90
19152;DHT22;9708;53.114;9.388;2023-12-20T13:15:31;7.90;99.90
19152;DHT22;9708;53.114;9.388;2023-12-20T13:17:58;7.70;99.90
19152;DHT22;9708;53.114;9.388;2023-12-20T13:20:25;7.70;99.90
19152;DHT22;9708;53.114;9.388;2023-12-20T13:22:52;7.70;99.90
19152;DHT22;9708;53.114;9.388;2023-12-20T13:25:20;7.70;99.90
19152;DHT22;9708;53.114;9.388;2023-12-20T13:27:47;7.70;99.90
19152;DHT22;9708;53.114;9.388;2023-12-20T13:30:15;7.50;99.90
19152;DHT22;9708;53.114;9.388;2023-12-20T13:32:42;7.30;99.90
19152;DHT22;9708;53.114;9.388;2023-12-20T13:35:09;7.30;99.90
19152;DHT22;9708;53.114;9.388;2023-12-20T13:37:36;7.20;99.90
19152;DHT22;9708;53.114;9.388;2023-12-20T13:40:04;7.20;99.90
19152;DHT22;9708;53.114;9.388;2023-12-20T13:42:33;7.10;99.90
19152;DHT22;9708;53.114;9.388;2023-12-20T13:44:59;7.00;99.90
19152;DHT22;9708;53.114;9.388;2023-12-20T13:47:26;7.00;99.90
19152;DHT22;9708;53.114;9.388;2023-12-20T13:49:54;7.00;99.90
19152;DHT22;9708;53.114;9.388;2023-12-20T13:52:21;7.10;99.90
19152;DHT22;9708;53.114;9.388;2023-12-20T13:54:48;7.10;99.90
19152;DHT22;9708;53.114;9.388;2023-12-20T13:57:15;7.10;99.90
19152;DHT22;9708;53.114;9.388;2023-12-20T13:59:43;7.20;99.90
19152;DHT22;9708;53.114;9.388;2023-12-20T14:02:10;7.20;99.90
19152;DHT22;9708;53.114;9.388;2023-12-20T14:04:37;7.10;99.90
19152;DHT22;9708;53.114;9.388;2023-12-20T14:07:06;7.10;99.90
19152;DHT22;9708;53.114;9.388;2023-12-20T14:09:33;7.00;99.90
19152;DHT22;9708;53.114;9.388;2023-12-20T14:12:00;7.00;99.90
19152;DHT22;9708;53.114;9.388;2023-12-20T14:14:27;7.00;99.90
19152;DHT22;9708;53.114;9.388;2023-12-20T14:16:55;7.00;99.90
19152;DHT22;9708;53.114;9.388;2023-12-20T14:19:22;7.00;99.90
19152;DHT22;9708;53.114;9.388;2023-12-20T14:21:49;7.00;99.90
19152;DHT22;9708;53.114;9.388;2023-12-20T14:24:16;7.00;99.90
19152;DHT22;9708;53.114;9.388;2023-12-20T14:26:43;7.00;99.90
19152;DHT22;9708;53.114;9.388;2023-12-20T14:29:09;7.00;99.90
19152;DHT22;9708;53.114;9.388;2023-12-20T14:31:36;7.00;99.90
19152;DHT22;9708;53.114;9.388;2023-12-20T14:34:05;7.00;99.90
19152;DHT22;9708;53.114;9.388;2023-12-20T14:36:32;7.00;99.90
19152;DHT22;9708;53.114;9.388;2023-12-20T14:38:59;7.00;99.90
19152;DHT22;9708;53.114;9.388;2023-12-20T14:41:27;7.00;99.90
19152;DHT22;9708;53.114;9.388;2023-12-20T14:43:54;7.00;99.90
19152;DHT22;9708;53.114;9.388;2023-12-20T14:46:20;7.00;99.90
19152;DHT22;9708;53.114;9.388;2023-12-20T14:48:47;7.00;99.90
19152;DHT22;9708;53.114;9.388;2023-12-20T14:51:16;7.00;99.90
19152;DHT22;9708;53.114;9.388;2023-12-20T14:53:43;7.00;99.90
19152;DHT22;9708;53.114;9.388;2023-12-20T14:56:10;7.00;99.90
19152;DHT22;9708;53.114;9.388;2023-12-20T14:58:36;6.90;99.90
19152;DHT22;9708;53.114;9.388;2023-12-20T15:01:04;6.80;99.90
19152;DHT22;9708;53.114;9.388;2023-12-20T15:03:33;6.80;99.90
19152;DHT22;9708;53.114;9.388;2023-12-20T15:06:00;6.80;99.90
19152;DHT22;9708;53.114;9.388;2023-12-20T15:08:28;6.80;99.90
19152;DHT22;9708;53.114;9.388;2023-12-20T15:10:56;6.80;99.90
19152;DHT22;9708;53.114;9.388;2023-12-20T15:13:23;6.80;99.90
19152;DHT22;9708;53.114;9.388;2023-12-20T15:15:49;6.80;99.90
19152;DHT22;9708;53.114;9.388;2023-12-20T15:18:16;6.70;99.90
19152;DHT22;9708;53.114;9.388;2023-12-20T15:20:43;6.80;99.90
19152;DHT22;9708;53.114;9.388;2023-12-20T15:23:10;6.70;99.90
19152;DHT22;9708;53.114;9.388;2023-12-20T15:25:38;6.70;99.90
19152;DHT22;9708;53.114;9.388;2023-12-20T15:28:06;6.70;99.90
19152;DHT22;9708;53.114;9.388;2023-12-20T15:30:33;6.60;99.90
19152;DHT22;9708;53.114;9.388;2023-12-20T15:33:01;6.60;99.90
19152;DHT22;9708;53.114;9.388;2023-12-20T15:35:28;6.60;99.90
19152;DHT22;9708;53.114;9.388;2023-12-20T15:37:56;6.60;99.90
19152;DHT22;9708;53.114;9.388;2023-12-20T15:40:24;6.60;99.90
19152;DHT22;9708;53.114;9.388;2023-12-20T15:42:52;6.60;99.90
19152;DHT22;9708;53.114;9.388;2023-12-20T15:45:19;6.70;99.90
19152;DHT22;9708;53.114;9.388;2023-12-20T15:47:46;6.70;99.90
19152;DHT22;9708;53.114;9.388;2023-12-20T15:50:13;6.70;99.90
19152;DHT22;9708;53.114;9.388;2023-12-20T15:52:40;6.70;99.90
19152;DHT22;9708;53.114;9.388;2023-12-20T15:55:08;6.70;99.90
19152;DHT22;9708;53.114;9.388;2023-12-20T15:57:35;6.70;99.90
19152;DHT22;9708;53.114;9.388;2023-12-20T16:00:06;6.70;99.90
19152;DHT22;9708;53.114;9.388;2023-12-20T16:02:34;6.70;99.90
19152;DHT22;9708;53.114;9.388;2023-12-20T16:05:01;6.70;99.90